createdAt,value
2018-08-31T00:01:33.337Z,52.90
2018-08-31T00:04:41.832Z,52.70
2018-08-31T00:08:21.601Z,52.80
2018-08-31T00:11:01.190Z,51.80
2018-08-31T00:13:28.801Z,51.70
2018-08-31T00:15:56.303Z,52.70
2018-08-31T00:18:24.096Z,52.90
2018-08-31T00:20:51.881Z,52.70
2018-08-31T00:23:29.799Z,53.00
2018-08-31T00:26:11.023Z,53.00
2018-08-31T00:28:50.701Z,53.60
2018-08-31T00:33:53.573Z,54.10
2018-08-31T00:36:50.151Z,53.60
2018-08-31T00:43:41.763Z,52.80
2018-08-31T00:46:09.692Z,51.80
2018-08-31T00:48:37.277Z,51.30
2018-08-31T00:51:06.083Z,52.00
2018-08-31T00:56:02.193Z,53.10
2018-08-31T00:58:31.761Z,53.50
2018-08-31T01:01:00.220Z,52.90
2018-08-31T01:03:30.923Z,53.20
2018-08-31T01:06:00.228Z,53.70
2018-08-31T01:08:29.835Z,53.50
2018-08-31T01:10:57.317Z,53.50
2018-08-31T01:13:24.851Z,54.10
2018-08-31T01:15:52.411Z,54.30
2018-08-31T01:18:19.938Z,55.10
2018-08-31T01:20:47.471Z,55.20
2018-08-31T01:23:15.037Z,54.50
2018-08-31T01:25:42.608Z,55.20
2018-08-31T01:28:10.201Z,54.50
2018-08-31T01:30:37.689Z,55.10
2018-08-31T01:33:05.251Z,54.60
2018-08-31T01:35:32.728Z,55.10
2018-08-31T01:38:00.303Z,55.20
2018-08-31T01:40:27.790Z,53.90
2018-08-31T01:42:55.286Z,54.10
2018-08-31T01:45:22.769Z,53.70
2018-08-31T01:47:50.279Z,53.50
2018-08-31T01:50:18.144Z,54.00
2018-08-31T01:52:46.386Z,52.70
2018-08-31T01:55:13.830Z,52.50
2018-08-31T01:57:41.319Z,51.90
2018-08-31T02:00:08.890Z,52.10
2018-08-31T02:02:36.432Z,52.30
2018-08-31T02:05:08.190Z,52.80
2018-08-31T02:07:45.327Z,52.80
2018-08-31T02:10:13.620Z,53.10
2018-08-31T02:12:43.040Z,53.80
2018-08-31T02:15:11.270Z,54.50
2018-08-31T02:20:09.587Z,54.40
2018-08-31T02:22:42.572Z,54.40
2018-08-31T02:25:10.254Z,54.40
2018-08-31T02:27:37.800Z,54.30
2018-08-31T02:30:05.482Z,54.40
2018-08-31T02:32:33.023Z,54.40
2018-08-31T02:35:00.537Z,54.50
2018-08-31T02:37:28.128Z,54.50
2018-08-31T02:46:56.107Z,54.40
2018-08-31T02:49:24.015Z,54.40
2018-08-31T02:51:51.929Z,54.50
2018-08-31T02:54:19.766Z,54.40
2018-08-31T02:56:47.784Z,55.00
2018-08-31T02:59:15.271Z,54.40
2018-08-31T03:01:42.732Z,55.00
2018-08-31T03:04:10.323Z,54.90
2018-08-31T03:06:37.876Z,54.30
2018-08-31T03:09:06.021Z,54.40
2018-08-31T03:11:33.704Z,55.00
2018-08-31T03:14:01.164Z,54.40
2018-08-31T03:16:28.665Z,54.30
2018-08-31T03:18:56.176Z,54.40
2018-08-31T03:21:23.729Z,54.40
2018-08-31T03:23:51.264Z,55.10
2018-08-31T03:26:18.739Z,55.00
2018-08-31T03:28:46.217Z,54.70
2018-08-31T03:31:13.704Z,54.80
2018-08-31T03:33:41.198Z,55.40
2018-08-31T03:36:08.658Z,55.30
2018-08-31T03:38:36.189Z,55.20
2018-08-31T03:41:03.644Z,56.00
2018-08-31T03:43:31.151Z,56.10
2018-08-31T03:45:58.711Z,56.10
2018-08-31T03:48:26.158Z,56.20
2018-08-31T03:50:53.649Z,56.50
2018-08-31T03:53:21.149Z,56.20
2018-08-31T03:55:48.636Z,56.80
2018-08-31T03:58:16.125Z,56.10
2018-08-31T04:00:43.637Z,56.70
2018-08-31T04:03:11.601Z,56.60
2018-08-31T04:05:39.135Z,56.70
2018-08-31T04:08:07.224Z,57.40
2018-08-31T04:10:35.382Z,57.20
2018-08-31T04:13:03.421Z,57.50
2018-08-31T04:15:32.012Z,57.20
2018-08-31T04:18:00.715Z,57.20
2018-08-31T04:20:28.235Z,56.10
2018-08-31T04:22:55.716Z,56.20
2018-08-31T04:25:23.264Z,56.80
2018-08-31T04:27:50.723Z,57.30
2018-08-31T04:30:18.239Z,57.50
2018-08-31T04:35:13.139Z,57.30
2018-08-31T04:37:40.929Z,57.50
2018-08-31T04:40:08.421Z,57.60
2018-08-31T04:42:35.970Z,57.90
2018-08-31T04:45:03.581Z,58.40
2018-08-31T04:47:31.368Z,57.50
2018-08-31T04:49:59.024Z,57.80
2018-08-31T04:52:26.484Z,57.70
2018-08-31T04:54:54.028Z,57.70
2018-08-31T04:57:21.594Z,57.90
2018-08-31T04:59:49.148Z,58.20
2018-08-31T05:02:16.754Z,58.30
2018-08-31T05:07:11.988Z,58.20
2018-08-31T05:09:39.676Z,58.40
2018-08-31T05:12:07.422Z,59.00
2018-08-31T05:14:37.843Z,58.90
2018-08-31T05:17:05.510Z,59.10
2018-08-31T05:19:33.032Z,58.80
2018-08-31T05:22:00.613Z,59.30
2018-08-31T05:24:28.088Z,59.40
2018-08-31T05:26:55.636Z,59.50
2018-08-31T05:31:50.614Z,58.80
2018-08-31T05:34:18.209Z,58.50
2018-08-31T05:39:13.204Z,58.50
2018-08-31T05:41:41.231Z,58.60
2018-08-31T05:44:08.878Z,58.50
2018-08-31T05:46:36.363Z,58.70
2018-08-31T05:49:03.886Z,58.70
2018-08-31T05:51:31.553Z,58.70
2018-08-31T05:53:59.086Z,59.20
2018-08-31T05:56:26.607Z,59.60
2018-08-31T05:58:54.139Z,59.30
2018-08-31T06:01:21.744Z,58.70
2018-08-31T06:03:49.302Z,58.70
2018-08-31T06:06:16.819Z,59.30
2018-08-31T06:08:44.328Z,58.00
2018-08-31T06:11:13.497Z,58.20
2018-08-31T06:13:41.005Z,58.80
2018-08-31T06:16:08.817Z,58.90
2018-08-31T06:18:36.405Z,58.80
2018-08-31T06:21:04.033Z,58.80
2018-08-31T06:23:31.849Z,59.40
2018-08-31T06:25:59.340Z,59.50
2018-08-31T06:28:26.850Z,59.60
2018-08-31T06:30:54.394Z,59.00
2018-08-31T06:33:21.899Z,59.70
2018-08-31T06:35:49.633Z,60.10
2018-08-31T06:38:17.171Z,59.50
2018-08-31T06:40:44.808Z,59.60
2018-08-31T06:43:12.298Z,59.00
2018-08-31T06:48:07.519Z,59.10
2018-08-31T06:50:35.156Z,59.10
2018-08-31T06:53:02.732Z,59.10
2018-08-31T06:55:30.336Z,59.40
2018-08-31T06:57:57.886Z,59.10
2018-08-31T07:00:25.411Z,59.10
2018-08-31T07:02:52.930Z,59.20
2018-08-31T07:05:20.446Z,59.20
2018-08-31T07:07:48.214Z,59.20
2018-08-31T07:10:15.871Z,59.30
2018-08-31T07:12:43.407Z,58.90
2018-08-31T07:15:10.854Z,58.40
2018-08-31T07:17:38.417Z,58.60
2018-08-31T07:20:06.392Z,58.50
2018-08-31T07:22:33.946Z,58.20
2018-08-31T07:25:01.452Z,58.50
2018-08-31T07:27:28.951Z,58.20
2018-08-31T07:29:56.444Z,58.80
2018-08-31T07:32:23.885Z,59.00
2018-08-31T07:34:51.462Z,59.00
2018-08-31T07:37:18.924Z,57.30
2018-08-31T07:39:46.444Z,57.40
2018-08-31T07:42:13.985Z,55.40
2018-08-31T07:44:41.473Z,56.20
2018-08-31T07:47:08.968Z,56.00
2018-08-31T07:49:36.477Z,54.00
2018-08-31T07:52:04.236Z,52.90
2018-08-31T07:54:31.837Z,53.80
2018-08-31T07:56:59.424Z,52.50
2018-08-31T07:59:26.941Z,53.10
2018-08-31T08:01:54.501Z,52.20
2018-08-31T08:04:22.074Z,52.00
2018-08-31T08:06:49.607Z,52.80
2018-08-31T08:09:17.136Z,52.60
2018-08-31T08:11:44.599Z,53.30
2018-08-31T08:14:12.191Z,53.30
2018-08-31T08:16:39.724Z,53.20
2018-08-31T08:19:07.226Z,53.80
2018-08-31T08:21:34.779Z,53.70
2018-08-31T08:24:02.334Z,54.30
2018-08-31T08:26:29.842Z,54.40
2018-08-31T08:28:57.321Z,54.50
2018-08-31T08:31:24.848Z,55.00
2018-08-31T08:33:52.348Z,53.40
2018-08-31T08:36:19.844Z,53.90
2018-08-31T08:38:47.345Z,54.50
2018-08-31T08:41:14.824Z,54.30
2018-08-31T08:43:42.302Z,54.40
2018-08-31T08:46:09.823Z,54.30
2018-08-31T08:48:37.503Z,54.30
2018-08-31T08:58:04.826Z,52.60
2018-08-31T09:00:32.284Z,53.20
2018-08-31T09:02:59.804Z,53.80
2018-08-31T09:05:27.375Z,54.50
2018-08-31T09:07:54.902Z,53.70
2018-08-31T09:10:22.408Z,54.60
2018-08-31T09:12:49.954Z,53.30
2018-08-31T09:15:17.452Z,52.00
2018-08-31T09:17:45.074Z,50.40
2018-08-31T09:20:12.654Z,48.70
2018-08-31T09:22:40.192Z,46.10
2018-08-31T09:25:07.737Z,46.40
2018-08-31T09:30:03.005Z,44.20
2018-08-31T09:32:31.731Z,41.90
2018-08-31T09:34:59.745Z,41.20
2018-08-31T09:37:27.348Z,41.30
2018-08-31T09:39:54.928Z,41.70
2018-08-31T09:42:22.440Z,41.90
2018-08-31T09:44:49.992Z,43.30
2018-08-31T09:47:17.596Z,44.00
2018-08-31T09:49:45.848Z,43.70
2018-08-31T09:52:15.849Z,44.50
2018-08-31T09:54:44.177Z,43.40
2018-08-31T09:57:11.987Z,43.80
2018-08-31T09:59:40.098Z,44.10
2018-08-31T10:02:13.341Z,43.20
2018-08-31T10:04:40.900Z,43.50
2018-08-31T10:07:08.457Z,43.30
2018-08-31T10:09:35.912Z,44.20
2018-08-31T10:12:03.499Z,40.50
2018-08-31T10:15:55.571Z,39.80
2018-08-31T10:18:23.081Z,40.60
2018-08-31T10:20:50.578Z,40.60
2018-08-31T10:23:18.106Z,40.40
2018-08-31T10:25:45.626Z,39.60
2018-08-31T10:28:13.204Z,40.00
2018-08-31T10:30:41.392Z,38.80
2018-08-31T10:33:08.965Z,40.60
2018-08-31T10:35:36.576Z,38.70
2018-08-31T10:38:04.166Z,38.50
2018-08-31T10:40:31.796Z,36.30
2018-08-31T10:42:59.376Z,34.90
2018-08-31T10:45:26.910Z,35.80
2018-08-31T10:47:54.424Z,36.30
2018-08-31T10:50:21.972Z,33.30
2018-08-31T10:52:49.556Z,33.40
2018-08-31T10:55:17.110Z,34.70
2018-08-31T10:57:44.607Z,34.30
2018-08-31T11:00:13.216Z,31.80
2018-08-31T11:02:40.765Z,31.50
2018-08-31T11:05:08.526Z,31.70
2018-08-31T11:07:36.085Z,30.10
2018-08-31T11:10:07.373Z,32.20
2018-08-31T11:12:35.333Z,33.00
2018-08-31T11:15:03.052Z,31.70
2018-08-31T11:17:31.736Z,31.10
2018-08-31T11:20:01.239Z,31.90
2018-08-31T11:24:56.149Z,33.30
2018-08-31T11:27:23.707Z,32.20
2018-08-31T11:29:51.295Z,31.70
2018-08-31T11:32:18.837Z,31.60
2018-08-31T11:37:14.556Z,31.50
2018-08-31T11:39:42.071Z,31.80
2018-08-31T11:49:09.640Z,31.30
2018-08-31T11:51:37.443Z,33.20
2018-08-31T11:54:05.144Z,28.60
2018-08-31T11:56:32.613Z,29.20
2018-08-31T11:59:00.136Z,29.60
2018-08-31T12:01:27.849Z,30.00
2018-08-31T12:03:55.464Z,29.00
2018-08-31T12:06:23.041Z,28.60
2018-08-31T12:08:50.558Z,30.50
2018-08-31T12:11:18.104Z,32.70
2018-08-31T12:13:45.792Z,29.20
2018-08-31T12:16:13.281Z,30.20
2018-08-31T12:18:40.838Z,32.50
2018-08-31T12:21:08.569Z,32.60
2018-08-31T12:23:36.825Z,33.30
2018-08-31T12:26:04.470Z,34.60
2018-08-31T12:28:32.041Z,35.00
2018-08-31T12:30:59.582Z,34.30
2018-08-31T12:33:27.096Z,35.40
2018-08-31T12:35:54.569Z,34.50
2018-08-31T12:38:22.125Z,34.00
2018-08-31T12:40:49.693Z,33.50
2018-08-31T12:43:17.212Z,34.80
2018-08-31T12:45:44.750Z,35.00
2018-08-31T12:50:39.714Z,35.10
2018-08-31T12:53:07.280Z,35.60
2018-08-31T12:55:34.860Z,36.70
2018-08-31T12:58:02.455Z,36.80
2018-08-31T13:00:29.996Z,36.70
2018-08-31T13:02:57.559Z,37.20
2018-08-31T13:05:25.078Z,37.20
2018-08-31T13:07:52.596Z,37.90
2018-08-31T13:10:20.130Z,38.00
2018-08-31T13:12:47.829Z,38.20
2018-08-31T13:15:16.163Z,37.20
2018-08-31T13:17:45.680Z,38.50
2018-08-31T13:20:16.702Z,37.10
2018-08-31T13:22:47.359Z,37.80
2018-08-31T13:25:15.049Z,38.20
2018-08-31T13:27:42.736Z,37.90
2018-08-31T13:30:10.263Z,38.40
2018-08-31T13:32:37.792Z,38.60
2018-08-31T13:35:08.830Z,37.40
2018-08-31T13:37:40.166Z,36.80
2018-08-31T13:40:09.073Z,37.50
2018-08-31T13:42:37.713Z,37.50
2018-08-31T13:45:06.054Z,36.40
2018-08-31T13:52:31.584Z,34.50
2018-08-31T13:54:59.233Z,33.20
2018-08-31T13:57:26.807Z,33.90
2018-08-31T13:59:54.333Z,34.50
2018-08-31T14:02:21.844Z,31.90
2018-08-31T14:04:49.360Z,32.90
2018-08-31T14:07:16.972Z,34.00
2018-08-31T14:09:44.635Z,34.80
2018-08-31T14:12:13.129Z,35.20
2018-08-31T14:14:40.668Z,35.80
2018-08-31T14:17:08.234Z,35.80
2018-08-31T14:23:27.717Z,37.90
2018-08-31T14:25:55.306Z,36.70
2018-08-31T14:30:50.515Z,37.90
2018-08-31T14:35:45.526Z,37.50
2018-08-31T14:38:13.129Z,36.70
2018-08-31T14:40:41.228Z,36.30
2018-08-31T14:43:08.775Z,35.20
2018-08-31T14:45:36.247Z,35.70
2018-08-31T14:48:03.855Z,35.00
2018-08-31T14:50:34.751Z,35.10
2018-08-31T14:53:02.712Z,35.80
2018-08-31T14:55:35.086Z,35.50
2018-08-31T14:58:05.955Z,34.70
2018-08-31T15:00:45.193Z,35.30
2018-08-31T15:03:16.281Z,35.60
2018-08-31T15:05:50.309Z,35.00
2018-08-31T15:08:20.330Z,35.60
2018-08-31T15:10:59.869Z,36.30
2018-08-31T15:13:35.319Z,36.20
2018-08-31T15:16:07.039Z,35.20
2018-08-31T15:18:41.514Z,36.00
2018-08-31T15:21:18.416Z,35.40
2018-08-31T15:23:52.452Z,34.90
2018-08-31T15:26:20.892Z,36.30
2018-08-31T15:28:49.786Z,36.00
2018-08-31T15:31:17.645Z,34.40
2018-08-31T15:36:13.717Z,33.50
2018-08-31T15:38:42.031Z,35.20
2018-08-31T15:43:37.239Z,34.50
2018-08-31T15:46:04.820Z,33.80
2018-08-31T15:48:32.338Z,32.90
2018-08-31T15:50:59.846Z,32.60
2018-08-31T15:53:27.467Z,33.60
2018-08-31T15:55:55.496Z,34.30
2018-08-31T15:58:22.991Z,34.90
2018-08-31T16:03:18.063Z,34.30
2018-08-31T16:05:45.655Z,34.40
2018-08-31T16:08:13.162Z,33.10
2018-08-31T16:10:40.692Z,33.80
2018-08-31T16:13:08.415Z,34.00
2018-08-31T16:15:35.958Z,34.10
2018-08-31T16:18:03.583Z,34.60
2018-08-31T16:20:31.637Z,35.90
2018-08-31T16:22:59.227Z,35.50
2018-08-31T16:25:26.768Z,35.10
2018-08-31T16:27:54.336Z,34.50
2018-08-31T16:30:22.011Z,35.30
2018-08-31T16:32:49.561Z,34.60
2018-08-31T16:35:17.121Z,34.80
2018-08-31T16:37:44.727Z,36.60
2018-08-31T16:40:12.743Z,37.20
2018-08-31T16:42:40.340Z,36.50
2018-08-31T16:45:07.967Z,37.20
2018-08-31T16:47:35.469Z,36.50
2018-08-31T16:50:03.162Z,35.80
2018-08-31T16:53:55.238Z,36.70
2018-08-31T16:56:23.376Z,37.00
2018-08-31T16:58:50.935Z,37.60
2018-08-31T17:01:18.726Z,37.50
2018-08-31T17:03:46.370Z,37.00
2018-08-31T17:06:13.911Z,37.60
2018-08-31T17:08:41.401Z,37.30
2018-08-31T17:11:08.965Z,37.80
2018-08-31T17:13:36.639Z,37.50
2018-08-31T17:16:04.284Z,38.20
2018-08-31T17:18:31.836Z,39.20
2018-08-31T17:20:59.482Z,38.40
2018-08-31T17:23:27.082Z,38.10
2018-08-31T17:25:54.624Z,37.70
2018-08-31T17:28:27.690Z,38.40
2018-08-31T17:31:00.948Z,38.20
2018-08-31T17:33:34.230Z,38.20
2018-08-31T17:36:07.551Z,39.30
2018-08-31T17:38:35.192Z,39.10
2018-08-31T17:41:02.800Z,39.60
2018-08-31T17:43:30.416Z,39.30
2018-08-31T17:45:57.977Z,39.60
2018-08-31T17:48:25.652Z,39.80
2018-08-31T17:50:53.216Z,39.80
2018-08-31T17:53:20.821Z,39.70
2018-08-31T17:58:16.312Z,39.80
2018-08-31T18:00:43.962Z,39.80
2018-08-31T18:03:11.514Z,40.00
2018-08-31T18:05:38.993Z,40.70
2018-08-31T18:10:34.833Z,40.50
2018-08-31T18:13:02.394Z,41.00
2018-08-31T18:15:30.006Z,41.00
2018-08-31T18:17:57.524Z,41.70
2018-08-31T18:20:25.096Z,41.00
2018-08-31T18:22:52.954Z,41.60
2018-08-31T18:25:20.478Z,42.50
2018-08-31T18:27:48.044Z,42.50
2018-08-31T18:30:15.642Z,42.00
2018-08-31T18:32:43.214Z,42.60
2018-08-31T18:35:10.859Z,43.10
2018-08-31T18:37:38.391Z,43.10
2018-08-31T18:40:05.982Z,43.10
2018-08-31T18:42:33.388Z,43.50
2018-08-31T18:45:00.889Z,42.70
2018-08-31T18:47:28.415Z,43.10
2018-08-31T18:49:56.076Z,43.10
2018-08-31T18:52:23.679Z,42.70
2018-08-31T18:54:51.180Z,42.90
2018-08-31T18:57:18.779Z,43.40
2018-08-31T18:59:46.344Z,42.80
2018-08-31T19:02:14.064Z,42.00
2018-08-31T19:04:41.776Z,42.60
2018-08-31T19:07:09.377Z,43.40
2018-08-31T19:09:36.971Z,43.40
2018-08-31T19:12:04.604Z,44.00
2018-08-31T19:14:32.291Z,43.90
2018-08-31T19:17:00.524Z,43.10
2018-08-31T19:19:28.366Z,43.40
2018-08-31T19:21:56.161Z,43.60
2018-08-31T19:24:23.756Z,43.20
2018-08-31T19:26:53.023Z,43.50
2018-08-31T19:29:21.314Z,44.10
2018-08-31T19:31:48.872Z,44.20
2018-08-31T19:34:16.369Z,44.80
2018-08-31T19:36:43.925Z,44.30
2018-08-31T19:39:11.937Z,44.90
2018-08-31T19:41:39.733Z,44.90
2018-08-31T19:44:07.990Z,44.80
2018-08-31T19:46:35.645Z,45.00
2018-08-31T19:49:03.170Z,44.70
2018-08-31T19:51:30.741Z,44.40
2018-08-31T19:53:58.422Z,44.80
2018-08-31T19:56:25.890Z,45.50
2018-08-31T19:58:53.461Z,45.30
2018-08-31T20:01:21.096Z,45.50
2018-08-31T20:03:48.721Z,45.30
2018-08-31T20:06:16.280Z,45.90
2018-08-31T20:08:44.101Z,46.00
2018-08-31T20:11:11.682Z,45.70
2018-08-31T20:13:39.305Z,45.60
2018-08-31T20:16:06.846Z,46.30
2018-08-31T20:18:34.459Z,46.20
2018-08-31T20:21:02.037Z,46.70
2018-08-31T20:23:29.926Z,46.00
2018-08-31T20:25:58.534Z,46.50
2018-08-31T20:28:26.698Z,45.60
2018-08-31T20:30:54.790Z,45.40
2018-08-31T20:33:22.417Z,45.50
2018-08-31T20:35:49.877Z,46.20
2018-08-31T20:38:20.529Z,46.00
2018-08-31T20:40:48.081Z,45.90
2018-08-31T20:43:15.596Z,46.50
2018-08-31T20:45:43.161Z,46.10
2018-08-31T20:48:10.790Z,46.20
2018-08-31T20:50:38.759Z,45.00
2018-08-31T20:53:06.282Z,45.60
2018-08-31T20:55:33.807Z,46.20
2018-08-31T20:58:01.782Z,46.30
2018-08-31T21:00:29.330Z,46.40
2018-08-31T21:02:56.882Z,45.70
2018-08-31T21:05:24.412Z,45.80
2018-08-31T21:07:52.019Z,46.30
2018-08-31T21:10:19.818Z,46.40
2018-08-31T21:12:47.453Z,46.60
2018-08-31T21:15:14.972Z,46.30
2018-08-31T21:17:42.623Z,47.50
2018-08-31T21:20:10.974Z,46.20
2018-08-31T21:22:38.503Z,46.50
2018-08-31T21:25:06.224Z,47.10
2018-08-31T21:27:33.750Z,46.80
2018-08-31T21:30:01.910Z,46.80
2018-08-31T21:32:30.166Z,46.90
2018-08-31T21:34:57.691Z,46.70
2018-08-31T21:37:25.322Z,46.60
2018-08-31T21:39:52.852Z,46.80
2018-08-31T21:42:21.100Z,47.30
2018-08-31T21:44:48.575Z,46.90
2018-08-31T21:47:16.213Z,46.90
2018-08-31T21:49:43.782Z,46.90
2018-08-31T21:54:39.045Z,46.60
2018-08-31T21:57:06.885Z,47.00
2018-08-31T21:59:34.654Z,45.90
2018-08-31T22:02:02.829Z,46.50
2018-08-31T22:04:30.419Z,46.70
2018-08-31T22:06:59.378Z,47.10
2018-08-31T22:09:26.954Z,46.90
2018-08-31T22:11:55.225Z,47.20
2018-08-31T22:14:22.752Z,47.80
2018-08-31T22:16:50.395Z,46.90
2018-08-31T22:19:18.618Z,46.60
2018-08-31T22:21:46.190Z,47.10
2018-08-31T22:24:13.826Z,47.10
2018-08-31T22:26:41.442Z,46.70
2018-08-31T22:29:09.258Z,46.80
2018-08-31T22:31:37.006Z,47.10
2018-08-31T22:36:32.001Z,47.10
2018-08-31T22:46:23.293Z,47.00
2018-08-31T22:51:19.633Z,47.10
2018-08-31T22:53:47.549Z,48.40
2018-08-31T22:56:15.156Z,47.70
2018-08-31T22:58:42.894Z,48.00
2018-08-31T23:01:10.385Z,48.20
2018-08-31T23:03:38.017Z,47.90
2018-08-31T23:06:05.517Z,48.50
2018-08-31T23:08:33.978Z,48.40
2018-08-31T23:11:01.643Z,48.70
2018-08-31T23:13:29.191Z,48.60
2018-08-31T23:15:56.790Z,48.40
2018-08-31T23:18:24.423Z,48.00
2018-08-31T23:20:51.893Z,48.20
2018-08-31T23:23:27.722Z,48.70
2018-08-31T23:25:55.256Z,48.60
2018-08-31T23:28:23.919Z,48.40
2018-08-31T23:30:52.478Z,48.70
2018-08-31T23:33:21.909Z,48.40
2018-08-31T23:35:50.091Z,48.50
2018-08-31T23:38:18.299Z,48.20
2018-08-31T23:40:46.379Z,48.40
2018-08-31T23:45:42.659Z,47.80
2018-08-31T23:48:11.308Z,48.10
2018-08-31T23:50:42.082Z,48.00
2018-08-31T23:53:09.712Z,48.50
2018-08-31T23:55:37.197Z,47.90
2018-08-31T23:58:04.866Z,48.60
